Terminal Aerodrome Forecast
Issued by NWS Atlanta, GA

Home | Current Version | Previous Version | Text Only | Print | Product List | Glossary On
Versions: 1 2 3 4 5 6 7 8 9 10 11 12 13 14 15 16 17 18 19 20 21 22 23 24 25 26 27 28 29 30 31 32 33 34 35 36
000
FTUS42 KFFC 221332 AAA
TAFATL
TAF AMD
KATL 221332Z 2214/2318 10013G21KT P6SM VCSH OVC015
      TEMPO 2214/2218 6SM -SHRA BR
     FM221900 10015G25KT 6SM -SHRA BR OVC012
     FM230000 09022G33KT 2SM SHRA BR OVC008
     FM231000 09013G21KT 6SM -DZ BR OVC008
     FM231500 13007KT P6SM BKN020=

USA.gov is the U.S. government's official web portal to all federal, state and local government web resources and services.